sensor_id;sensor_type;location;lat;lon;timestamp;pressure;altitude;pressure_sealevel;temperature;humidity
70127;BME280;57491;42.694;23.314;2022-07-06T00:01:50;95066.22;;;22.05;74.89
70127;BME280;57491;42.694;23.314;2022-07-06T00:04:17;95064.31;;;22.00;75.09
70127;BME280;57491;42.694;23.314;2022-07-06T00:06:45;95069.84;;;21.99;75.02
70127;BME280;57491;42.694;23.314;2022-07-06T00:09:13;95050.41;;;21.88;74.94
70127;BME280;57491;42.694;23.314;2022-07-06T00:11:41;95070.94;;;22.03;74.88
70127;BME280;57491;42.694;23.314;2022-07-06T00:14:08;95075.50;;;22.07;76.89
70127;BME280;57491;42.694;23.314;2022-07-06T00:16:35;95077.91;;;22.09;77.17
70127;BME280;57491;42.694;23.314;2022-07-06T00:19:02;95075.50;;;22.07;74.98
70127;BME280;57491;42.694;23.314;2022-07-06T00:21:30;95070.66;;;21.99;74.53
70127;BME280;57491;42.694;23.314;2022-07-06T00:23:57;95081.06;;;22.06;74.31
70127;BME280;57491;42.694;23.314;2022-07-06T00:26:25;95095.41;;;22.10;74.32
70127;BME280;57491;42.694;23.314;2022-07-06T00:28:52;95099.09;;;22.09;74.86
70127;BME280;57491;42.694;23.314;2022-07-06T00:31:20;95093.78;;;22.09;74.83
70127;BME280;57491;42.694;23.314;2022-07-06T00:33:47;95101.22;;;22.12;74.85
70127;BME280;57491;42.694;23.314;2022-07-06T00:36:14;95101.03;;;22.18;74.23
70127;BME280;57491;42.694;23.314;2022-07-06T00:38:41;95087.03;;;21.96;74.11
70127;BME280;57491;42.694;23.314;2022-07-06T00:41:08;95099.16;;;21.92;73.76
70127;BME280;57491;42.694;23.314;2022-07-06T00:43:50;95098.28;;;21.87;75.09
70127;BME280;57491;42.694;23.314;2022-07-06T00:46:18;95100.38;;;21.85;75.23
70127;BME280;57491;42.694;23.314;2022-07-06T00:48:45;95103.06;;;21.90;75.12
70127;BME280;57491;42.694;23.314;2022-07-06T00:51:12;95108.75;;;21.98;74.50
70127;BME280;57491;42.694;23.314;2022-07-06T00:53:40;95104.31;;;22.04;74.64
70127;BME280;57491;42.694;23.314;2022-07-06T00:56:07;95099.03;;;22.04;74.03
70127;BME280;57491;42.694;23.314;2022-07-06T00:58:36;95089.19;;;21.99;74.32
70127;BME280;57491;42.694;23.314;2022-07-06T01:01:04;95076.81;;;22.05;74.35
70127;BME280;57491;42.694;23.314;2022-07-06T01:03:32;95073.94;;;22.11;73.62
70127;BME280;57491;42.694;23.314;2022-07-06T01:05:59;95065.47;;;22.09;73.36
70127;BME280;57491;42.694;23.314;2022-07-06T01:08:27;95060.28;;;21.93;72.89
70127;BME280;57491;42.694;23.314;2022-07-06T01:10:55;95059.44;;;21.92;73.99
70127;BME280;57491;42.694;23.314;2022-07-06T01:13:22;95056.00;;;21.92;74.27
70127;BME280;57491;42.694;23.314;2022-07-06T01:15:49;95044.25;;;21.83;73.71
70127;BME280;57491;42.694;23.314;2022-07-06T01:18:19;95043.22;;;21.84;73.80
70127;BME280;57491;42.694;23.314;2022-07-06T01:20:47;95050.13;;;21.90;73.28
70127;BME280;57491;42.694;23.314;2022-07-06T01:23:15;95037.88;;;21.78;72.89
70127;BME280;57491;42.694;23.314;2022-07-06T01:25:42;95060.94;;;21.83;73.57
70127;BME280;57491;42.694;23.314;2022-07-06T01:28:09;95060.06;;;21.77;73.76
70127;BME280;57491;42.694;23.314;2022-07-06T01:30:36;95053.13;;;21.71;73.56
70127;BME280;57491;42.694;23.314;2022-07-06T01:33:03;95064.72;;;21.65;73.72
70127;BME280;57491;42.694;23.314;2022-07-06T01:35:32;95052.34;;;21.49;74.21
70127;BME280;57491;42.694;23.314;2022-07-06T01:38:01;95061.75;;;21.40;74.61
70127;BME280;57491;42.694;23.314;2022-07-06T01:40:29;95048.66;;;21.28;74.31
70127;BME280;57491;42.694;23.314;2022-07-06T01:42:56;95065.63;;;21.32;74.40
70127;BME280;57491;42.694;23.314;2022-07-06T01:45:23;95061.16;;;21.33;74.26
70127;BME280;57491;42.694;23.314;2022-07-06T01:47:51;95055.72;;;21.23;74.59
70127;BME280;57491;42.694;23.314;2022-07-06T01:50:18;95058.13;;;21.08;74.94
70127;BME280;57491;42.694;23.314;2022-07-06T01:52:45;95063.09;;;21.04;74.91
70127;BME280;57491;42.694;23.314;2022-07-06T01:55:13;95050.31;;;20.96;74.82
70127;BME280;57491;42.694;23.314;2022-07-06T01:57:41;95068.50;;;20.92;74.40
70127;BME280;57491;42.694;23.314;2022-07-06T02:00:08;95072.28;;;20.80;74.41
70127;BME280;57491;42.694;23.314;2022-07-06T02:02:35;95076.31;;;20.66;74.73
70127;BME280;57491;42.694;23.314;2022-07-06T02:05:02;95069.03;;;20.56;75.35
70127;BME280;57491;42.694;23.314;2022-07-06T02:07:29;95073.19;;;20.52;75.90
70127;BME280;57491;42.694;23.314;2022-07-06T02:09:56;95065.00;;;20.54;75.68
70127;BME280;57491;42.694;23.314;2022-07-06T02:12:25;95062.22;;;20.60;75.60
70127;BME280;57491;42.694;23.314;2022-07-06T02:14:52;95064.13;;;20.65;74.99
70127;BME280;57491;42.694;23.314;2022-07-06T02:17:19;95076.53;;;20.64;74.97
70127;BME280;57491;42.694;23.314;2022-07-06T02:19:46;95070.72;;;20.62;75.08
70127;BME280;57491;42.694;23.314;2022-07-06T02:22:13;95078.69;;;20.67;75.02
70127;BME280;57491;42.694;23.314;2022-07-06T02:24:40;95065.47;;;20.67;74.61
70127;BME280;57491;42.694;23.314;2022-07-06T02:27:07;95070.22;;;20.65;74.89
70127;BME280;57491;42.694;23.314;2022-07-06T02:29:36;95074.88;;;20.75;74.58
70127;BME280;57491;42.694;23.314;2022-07-06T02:32:03;95068.34;;;20.82;74.39
70127;BME280;57491;42.694;23.314;2022-07-06T02:34:31;95053.06;;;20.84;74.22
70127;BME280;57491;42.694;23.314;2022-07-06T02:36:58;95063.47;;;20.91;73.35
70127;BME280;57491;42.694;23.314;2022-07-06T02:39:26;95044.50;;;20.77;73.15
70127;BME280;57491;42.694;23.314;2022-07-06T02:41:53;95061.69;;;20.97;74.13
70127;BME280;57491;42.694;23.314;2022-07-06T02:44:20;95058.75;;;20.93;72.78
70127;BME280;57491;42.694;23.314;2022-07-06T02:46:48;95062.72;;;20.96;72.78
70127;BME280;57491;42.694;23.314;2022-07-06T02:49:15;95039.44;;;20.92;72.35
70127;BME280;57491;42.694;23.314;2022-07-06T02:51:42;95057.81;;;21.04;71.51
70127;BME280;57491;42.694;23.314;2022-07-06T02:54:09;95061.34;;;21.10;71.38
70127;BME280;57491;42.694;23.314;2022-07-06T02:56:36;95064.56;;;21.12;71.80
70127;BME280;57491;42.694;23.314;2022-07-06T02:59:03;95069.38;;;21.15;71.80
70127;BME280;57491;42.694;23.314;2022-07-06T03:01:31;95066.16;;;21.13;71.83
70127;BME280;57491;42.694;23.314;2022-07-06T03:03:59;95060.41;;;21.16;71.40
70127;BME280;57491;42.694;23.314;2022-07-06T03:06:27;95061.50;;;21.20;71.63
70127;BME280;57491;42.694;23.314;2022-07-06T03:08:54;95061.81;;;21.23;72.02
70127;BME280;57491;42.694;23.314;2022-07-06T03:11:21;95066.38;;;21.28;71.45
70127;BME280;57491;42.694;23.314;2022-07-06T03:13:48;95063.97;;;21.26;70.96
70127;BME280;57491;42.694;23.314;2022-07-06T03:16:15;95074.59;;;21.31;71.01
70127;BME280;57491;42.694;23.314;2022-07-06T03:18:42;95069.81;;;21.28;70.45
70127;BME280;57491;42.694;23.314;2022-07-06T03:21:10;95073.00;;;21.30;70.32
70127;BME280;57491;42.694;23.314;2022-07-06T03:23:37;95073.34;;;21.34;70.69
70127;BME280;57491;42.694;23.314;2022-07-06T03:26:05;95081.06;;;21.41;70.77
70127;BME280;57491;42.694;23.314;2022-07-06T03:28:32;95084.28;;;21.43;69.61
70127;BME280;57491;42.694;23.314;2022-07-06T03:30:59;95067.47;;;21.32;68.19
70127;BME280;57491;42.694;23.314;2022-07-06T03:33:26;95088.84;;;21.47;67.91
70127;BME280;57491;42.694;23.314;2022-07-06T03:35:53;95094.59;;;21.44;68.19
70127;BME280;57491;42.694;23.314;2022-07-06T03:38:21;95090.84;;;21.40;67.26
70127;BME280;57491;42.694;23.314;2022-07-06T03:40:49;95085.03;;;21.38;66.94
70127;BME280;57491;42.694;23.314;2022-07-06T03:43:16;95084.38;;;21.31;66.51
70127;BME280;57491;42.694;23.314;2022-07-06T03:45:43;95096.63;;;21.37;67.26
70127;BME280;57491;42.694;23.314;2022-07-06T03:48:10;95101.13;;;21.36;67.12
70127;BME280;57491;42.694;23.314;2022-07-06T03:50:37;95100.31;;;21.36;66.59
70127;BME280;57491;42.694;23.314;2022-07-06T03:53:04;95093.91;;;21.32;66.99
70127;BME280;57491;42.694;23.314;2022-07-06T03:55:33;95101.69;;;21.39;66.79
70127;BME280;57491;42.694;23.314;2022-07-06T03:58:00;95099.41;;;21.47;66.49
70127;BME280;57491;42.694;23.314;2022-07-06T04:00:27;95081.56;;;21.38;66.63
70127;BME280;57491;42.694;23.314;2022-07-06T04:02:54;95090.41;;;21.48;66.63
70127;BME280;57491;42.694;23.314;2022-07-06T04:05:21;95107.09;;;21.70;65.55
70127;BME280;57491;42.694;23.314;2022-07-06T04:07:49;95109.25;;;21.73;65.27
70127;BME280;57491;42.694;23.314;2022-07-06T04:10:16;95093.81;;;21.65;65.03
70127;BME280;57491;42.694;23.314;2022-07-06T04:12:45;95106.47;;;21.63;65.02
70127;BME280;57491;42.694;23.314;2022-07-06T04:15:12;95098.25;;;21.60;65.52
70127;BME280;57491;42.694;23.314;2022-07-06T04:17:39;95105.97;;;21.66;65.08
70127;BME280;57491;42.694;23.314;2022-07-06T04:20:19;95103.66;;;21.70;65.05
70127;BME280;57491;42.694;23.314;2022-07-06T04:22:46;95111.84;;;21.68;65.91
70127;BME280;57491;42.694;23.314;2022-07-06T04:25:13;95114.25;;;21.70;65.25
70127;BME280;57491;42.694;23.314;2022-07-06T04:27:41;95095.66;;;21.65;64.87
70127;BME280;57491;42.694;23.314;2022-07-06T04:30:10;95115.22;;;21.86;64.69
70127;BME280;57491;42.694;23.314;2022-07-06T04:32:38;95113.13;;;21.88;64.08
70127;BME280;57491;42.694;23.314;2022-07-06T04:35:06;95088.56;;;21.70;64.65
70127;BME280;57491;42.694;23.314;2022-07-06T04:37:33;95123.31;;;21.96;64.22
70127;BME280;57491;42.694;23.314;2022-07-06T04:40:00;95138.59;;;22.15;63.95
70127;BME280;57491;42.694;23.314;2022-07-06T04:42:27;95132.31;;;22.21;63.63
70127;BME280;57491;42.694;23.314;2022-07-06T04:44:54;95127.31;;;22.25;63.96
70127;BME280;57491;42.694;23.314;2022-07-06T04:47:23;95143.13;;;22.42;63.81
70127;BME280;57491;42.694;23.314;2022-07-06T04:49:51;95153.00;;;22.51;63.20
70127;BME280;57491;42.694;23.314;2022-07-06T04:52:18;95146.00;;;22.40;63.02
70127;BME280;57491;42.694;23.314;2022-07-06T04:54:45;95165.00;;;22.32;63.74
70127;BME280;57491;42.694;23.314;2022-07-06T04:57:12;95160.16;;;22.02;64.67
70127;BME280;57491;42.694;23.314;2022-07-06T04:59:39;95151.09;;;21.76;65.21
70127;BME280;57491;42.694;23.314;2022-07-06T05:02:06;95144.09;;;21.65;65.75
70127;BME280;57491;42.694;23.314;2022-07-06T05:04:34;95169.53;;;21.88;65.69
70127;BME280;57491;42.694;23.314;2022-07-06T05:07:02;95155.16;;;21.84;65.84
70127;BME280;57491;42.694;23.314;2022-07-06T05:09:30;95182.41;;;21.85;65.33
70127;BME280;57491;42.694;23.314;2022-07-06T05:11:58;95173.25;;;21.70;66.00
70127;BME280;57491;42.694;23.314;2022-07-06T05:14:25;95180.44;;;21.53;67.00
70127;BME280;57491;42.694;23.314;2022-07-06T05:16:52;95187.19;;;21.44;66.87
70127;BME280;57491;42.694;23.314;2022-07-06T05:19:19;95169.66;;;21.38;67.22
70127;BME280;57491;42.694;23.314;2022-07-06T05:21:47;95167.78;;;21.55;66.81
70127;BME280;57491;42.694;23.314;2022-07-06T05:24:15;95180.78;;;21.78;66.37
70127;BME280;57491;42.694;23.314;2022-07-06T05:26:42;95184.63;;;22.09;65.71
70127;BME280;57491;42.694;23.314;2022-07-06T05:29:09;95181.75;;;22.38;64.73
70127;BME280;57491;42.694;23.314;2022-07-06T05:31:36;95178.34;;;22.42;63.94
70127;BME280;57491;42.694;23.314;2022-07-06T05:34:03;95179.69;;;22.45;64.18
70127;BME280;57491;42.694;23.314;2022-07-06T05:36:30;95191.28;;;22.65;63.79
70127;BME280;57491;42.694;23.314;2022-07-06T05:38:59;95183.25;;;22.55;63.09
70127;BME280;57491;42.694;23.314;2022-07-06T05:41:26;95174.59;;;22.38;63.38
70127;BME280;57491;42.694;23.314;2022-07-06T05:43:53;95193.00;;;22.50;63.49
70127;BME280;57491;42.694;23.314;2022-07-06T05:46:20;95193.69;;;22.40;63.04
70127;BME280;57491;42.694;23.314;2022-07-06T05:48:47;95188.50;;;22.50;63.32
70127;BME280;57491;42.694;23.314;2022-07-06T05:51:32;95184.41;;;22.64;62.57
70127;BME280;57491;42.694;23.314;2022-07-06T05:54:01;95208.56;;;22.95;61.12
70127;BME280;57491;42.694;23.314;2022-07-06T05:56:28;95194.16;;;23.18;60.76
70127;BME280;57491;42.694;23.314;2022-07-06T05:58:55;95200.75;;;23.47;59.66
70127;BME280;57491;42.694;23.314;2022-07-06T06:01:22;95195.28;;;23.69;58.74
70127;BME280;57491;42.694;23.314;2022-07-06T06:03:49;95200.97;;;23.87;58.90
70127;BME280;57491;42.694;23.314;2022-07-06T06:06:16;95196.41;;;23.78;57.95
70127;BME280;57491;42.694;23.314;2022-07-06T06:08:43;95206.09;;;23.52;58.41
70127;BME280;57491;42.694;23.314;2022-07-06T06:11:12;95185.72;;;23.26;59.79
70127;BME280;57491;42.694;23.314;2022-07-06T06:13:39;95196.69;;;23.39;58.54
70127;BME280;57491;42.694;23.314;2022-07-06T06:16:06;95197.13;;;23.26;59.27
70127;BME280;57491;42.694;23.314;2022-07-06T06:18:33;95200.72;;;23.10;59.90
70127;BME280;57491;42.694;23.314;2022-07-06T06:21:00;95193.88;;;23.14;60.38
70127;BME280;57491;42.694;23.314;2022-07-06T06:23:27;95199.19;;;23.14;59.96
70127;BME280;57491;42.694;23.314;2022-07-06T06:25:54;95197.06;;;23.16;60.04
70127;BME280;57491;42.694;23.314;2022-07-06T06:28:23;95181.53;;;22.98;60.12
70127;BME280;57491;42.694;23.314;2022-07-06T06:30:50;95195.91;;;23.07;60.54
70127;BME280;57491;42.694;23.314;2022-07-06T06:33:18;95195.41;;;23.10;59.87
70127;BME280;57491;42.694;23.314;2022-07-06T06:35:48;95190.66;;;23.12;59.96
70127;BME280;57491;42.694;23.314;2022-07-06T06:38:15;95193.88;;;23.14;60.07
70127;BME280;57491;42.694;23.314;2022-07-06T06:40:43;95191.53;;;23.23;60.38
70127;BME280;57491;42.694;23.314;2022-07-06T06:43:10;95185.25;;;23.34;58.71
70127;BME280;57491;42.694;23.314;2022-07-06T06:45:38;95185.00;;;23.35;59.05
70127;BME280;57491;42.694;23.314;2022-07-06T06:48:06;95174.03;;;23.59;58.51
70127;BME280;57491;42.694;23.314;2022-07-06T06:50:33;95174.41;;;23.87;58.37
70127;BME280;57491;42.694;23.314;2022-07-06T06:53:02;95178.09;;;24.43;57.06
70127;BME280;57491;42.694;23.314;2022-07-06T06:55:29;95161.94;;;24.75;55.09
70127;BME280;57491;42.694;23.314;2022-07-06T06:57:56;95177.66;;;25.12;54.53
70127;BME280;57491;42.694;23.314;2022-07-06T07:00:23;95174.97;;;25.22;53.26
70127;BME280;57491;42.694;23.314;2022-07-06T07:02:51;95177.09;;;24.95;54.56
70127;BME280;57491;42.694;23.314;2022-07-06T07:05:19;95173.88;;;24.83;53.83
70127;BME280;57491;42.694;23.314;2022-07-06T07:07:46;95185.06;;;24.85;54.01
70127;BME280;57491;42.694;23.314;2022-07-06T07:10:13;95168.56;;;24.73;54.06
70127;BME280;57491;42.694;23.314;2022-07-06T07:12:44;95179.19;;;24.68;54.18
70127;BME280;57491;42.694;23.314;2022-07-06T07:15:11;95176.50;;;24.42;54.01
70127;BME280;57491;42.694;23.314;2022-07-06T07:17:39;95183.41;;;24.43;55.44
70127;BME280;57491;42.694;23.314;2022-07-06T07:20:09;95181.78;;;24.32;54.95
70127;BME280;57491;42.694;23.314;2022-07-06T07:22:37;95189.41;;;24.09;56.00
70127;BME280;57491;42.694;23.314;2022-07-06T07:25:05;95175.69;;;23.75;56.71
70127;BME280;57491;42.694;23.314;2022-07-06T07:27:32;95160.53;;;23.70;56.93
70127;BME280;57491;42.694;23.314;2022-07-06T07:30:01;95171.00;;;23.97;57.15
70127;BME280;57491;42.694;23.314;2022-07-06T07:32:28;95180.31;;;24.05;55.83
70127;BME280;57491;42.694;23.314;2022-07-06T07:34:55;95151.28;;;23.83;56.21
70127;BME280;57491;42.694;23.314;2022-07-06T07:37:24;95172.94;;;24.12;55.11
70127;BME280;57491;42.694;23.314;2022-07-06T07:39:51;95176.03;;;24.71;54.85
70127;BME280;57491;42.694;23.314;2022-07-06T07:42:18;95168.59;;;25.18;52.97
70127;BME280;57491;42.694;23.314;2022-07-06T07:44:45;95173.59;;;25.70;52.94
70127;BME280;57491;42.694;23.314;2022-07-06T07:47:12;95173.78;;;25.94;51.22
70127;BME280;57491;42.694;23.314;2022-07-06T07:49:39;95174.75;;;26.13;50.30
70127;BME280;57491;42.694;23.314;2022-07-06T07:52:06;95134.91;;;25.93;49.90
70127;BME280;57491;42.694;23.314;2022-07-06T07:54:35;95172.91;;;26.14;50.06
70127;BME280;57491;42.694;23.314;2022-07-06T07:57:02;95166.13;;;26.42;49.81
70127;BME280;57491;42.694;23.314;2022-07-06T07:59:30;95162.66;;;26.85;48.91
70127;BME280;57491;42.694;23.314;2022-07-06T08:01:57;95169.69;;;27.10;47.66
70127;BME280;57491;42.694;23.314;2022-07-06T08:04:24;95164.47;;;27.29;47.60
70127;BME280;57491;42.694;23.314;2022-07-06T08:06:51;95155.06;;;27.31;47.26
70127;BME280;57491;42.694;23.314;2022-07-06T08:09:18;95144.34;;;27.07;47.02
70127;BME280;57491;42.694;23.314;2022-07-06T08:11:47;95167.50;;;26.78;48.98
70127;BME280;57491;42.694;23.314;2022-07-06T08:14:14;95172.00;;;26.39;49.19
70127;BME280;57491;42.694;23.314;2022-07-06T08:16:42;95178.00;;;26.05;49.90
70127;BME280;57491;42.694;23.314;2022-07-06T08:19:09;95173.69;;;26.14;49.47
70127;BME280;57491;42.694;23.314;2022-07-06T08:21:39;95168.78;;;26.47;48.79
70127;BME280;57491;42.694;23.314;2022-07-06T08:24:07;95168.69;;;26.57;48.76
70127;BME280;57491;42.694;23.314;2022-07-06T08:26:34;95171.53;;;26.71;48.91
70127;BME280;57491;42.694;23.314;2022-07-06T08:29:03;95163.94;;;27.27;48.55
70127;BME280;57491;42.694;23.314;2022-07-06T08:31:31;95161.91;;;27.71;46.84
70127;BME280;57491;42.694;23.314;2022-07-06T08:33:59;95167.78;;;27.73;45.89
70127;BME280;57491;42.694;23.314;2022-07-06T08:36:27;95160.94;;;28.10;45.07
70127;BME280;57491;42.694;23.314;2022-07-06T08:38:54;95170.38;;;28.26;44.21
70127;BME280;57491;42.694;23.314;2022-07-06T08:41:23;95163.97;;;28.46;43.73
70127;BME280;57491;42.694;23.314;2022-07-06T08:43:52;95158.97;;;28.39;43.61
70127;BME280;57491;42.694;23.314;2022-07-06T08:46:21;95146.19;;;28.36;43.93
70127;BME280;57491;42.694;23.314;2022-07-06T08:48:49;95157.97;;;28.35;43.27
70127;BME280;57491;42.694;23.314;2022-07-06T08:51:18;95158.75;;;28.35;43.61
70127;BME280;57491;42.694;23.314;2022-07-06T08:53:47;95157.69;;;28.36;43.71
70127;BME280;57491;42.694;23.314;2022-07-06T08:56:16;95156.34;;;28.34;43.17
70127;BME280;57491;42.694;23.314;2022-07-06T08:58:45;95158.09;;;28.44;43.75
70127;BME280;57491;42.694;23.314;2022-07-06T09:01:12;95166.63;;;28.27;43.80
70127;BME280;57491;42.694;23.314;2022-07-06T09:03:41;95161.13;;;28.37;44.34
70127;BME280;57491;42.694;23.314;2022-07-06T09:06:09;95145.22;;;28.64;43.16
70127;BME280;57491;42.694;23.314;2022-07-06T09:08:36;95159.88;;;28.91;43.14
70127;BME280;57491;42.694;23.314;2022-07-06T09:11:03;95170.00;;;28.75;43.29
70127;BME280;57491;42.694;23.314;2022-07-06T09:13:31;95140.13;;;28.49;43.21
70127;BME280;57491;42.694;23.314;2022-07-06T09:16:09;95160.88;;;28.95;43.72
70127;BME280;57491;42.694;23.314;2022-07-06T09:18:36;95146.69;;;29.26;43.14
70127;BME280;57491;42.694;23.314;2022-07-06T09:21:05;95164.22;;;29.51;42.21
70127;BME280;57491;42.694;23.314;2022-07-06T09:23:32;95150.13;;;29.59;42.13
70127;BME280;57491;42.694;23.314;2022-07-06T09:26:01;95140.59;;;29.40;42.25
70127;BME280;57491;42.694;23.314;2022-07-06T09:28:40;95154.16;;;29.11;42.81
70127;BME280;57491;42.694;23.314;2022-07-06T09:31:08;95153.72;;;28.90;42.60
70127;BME280;57491;42.694;23.314;2022-07-06T09:33:35;95171.47;;;28.62;43.82
70127;BME280;57491;42.694;23.314;2022-07-06T09:36:07;95166.72;;;28.59;43.64
70127;BME280;57491;42.694;23.314;2022-07-06T09:38:34;95156.66;;;28.51;43.62
70127;BME280;57491;42.694;23.314;2022-07-06T09:41:02;95163.31;;;28.54;43.71
70127;BME280;57491;42.694;23.314;2022-07-06T09:43:30;95155.22;;;28.59;43.71
70127;BME280;57491;42.694;23.314;2022-07-06T09:45:59;95133.09;;;28.53;43.26
70127;BME280;57491;42.694;23.314;2022-07-06T09:48:27;95155.22;;;28.77;44.19
70127;BME280;57491;42.694;23.314;2022-07-06T09:50:56;95144.00;;;28.94;42.92
70127;BME280;57491;42.694;23.314;2022-07-06T09:53:26;95144.56;;;29.42;42.47
70127;BME280;57491;42.694;23.314;2022-07-06T09:55:55;95139.63;;;29.49;41.26
70127;BME280;57491;42.694;23.314;2022-07-06T09:58:23;95129.31;;;29.70;41.06
70127;BME280;57491;42.694;23.314;2022-07-06T10:00:50;95143.22;;;29.99;40.38
70127;BME280;57491;42.694;23.314;2022-07-06T10:03:18;95152.22;;;30.17;40.64
70127;BME280;57491;42.694;23.314;2022-07-06T10:05:47;95146.28;;;30.20;39.48
70127;BME280;57491;42.694;23.314;2022-07-06T10:08:16;95130.28;;;30.15;39.08
70127;BME280;57491;42.694;23.314;2022-07-06T10:10:45;95142.06;;;30.41;39.67
70127;BME280;57491;42.694;23.314;2022-07-06T10:13:14;95136.03;;;30.94;38.38
70127;BME280;57491;42.694;23.314;2022-07-06T10:15:46;95140.19;;;30.78;37.86
70127;BME280;57491;42.694;23.314;2022-07-06T10:18:14;95131.25;;;30.46;39.03
70127;BME280;57491;42.694;23.314;2022-07-06T10:20:41;95139.56;;;30.58;39.19
70127;BME280;57491;42.694;23.314;2022-07-06T10:23:08;95127.50;;;30.92;38.74
70127;BME280;57491;42.694;23.314;2022-07-06T10:25:35;95134.84;;;31.22;37.79
70127;BME280;57491;42.694;23.314;2022-07-06T10:28:05;95132.13;;;31.44;37.88
70127;BME280;57491;42.694;23.314;2022-07-06T10:30:40;95128.22;;;31.51;36.52
70127;BME280;57491;42.694;23.314;2022-07-06T10:33:08;95126.16;;;31.48;36.98
70127;BME280;57491;42.694;23.314;2022-07-06T10:35:39;95130.03;;;31.64;37.06
70127;BME280;57491;42.694;23.314;2022-07-06T10:38:07;95130.59;;;31.83;36.31
70127;BME280;57491;42.694;23.314;2022-07-06T10:40:36;95123.88;;;31.63;36.21
70127;BME280;57491;42.694;23.314;2022-07-06T10:43:22;95127.81;;;31.66;36.30
70127;BME280;57491;42.694;23.314;2022-07-06T10:45:52;95129.41;;;31.67;36.67
70127;BME280;57491;42.694;23.314;2022-07-06T10:48:22;95126.50;;;31.94;35.34
70127;BME280;57491;42.694;23.314;2022-07-06T10:50:52;95122.94;;;32.16;34.37
70127;BME280;57491;42.694;23.314;2022-07-06T10:53:23;95128.53;;;31.88;34.69
70127;BME280;57491;42.694;23.314;2022-07-06T10:55:52;95128.47;;;31.40;35.98
70127;BME280;57491;42.694;23.314;2022-07-06T10:58:41;95111.72;;;31.43;35.84
70127;BME280;57491;42.694;23.314;2022-07-06T11:01:10;95096.88;;;30.93;36.48
70127;BME280;57491;42.694;23.314;2022-07-06T11:03:40;95122.63;;;30.94;36.11
70127;BME280;57491;42.694;23.314;2022-07-06T11:06:09;95107.63;;;30.93;36.55
70127;BME280;57491;42.694;23.314;2022-07-06T11:08:42;95121.75;;;30.85;36.24
70127;BME280;57491;42.694;23.314;2022-07-06T11:11:14;95107.88;;;30.83;36.30
70127;BME280;57491;42.694;23.314;2022-07-06T11:13:47;95116.63;;;31.11;36.54
70127;BME280;57491;42.694;23.314;2022-07-06T11:16:16;95121.66;;;31.12;35.61
70127;BME280;57491;42.694;23.314;2022-07-06T11:18:47;95118.47;;;31.32;35.49
70127;BME280;57491;42.694;23.314;2022-07-06T11:21:19;95113.09;;;31.32;36.13
70127;BME280;57491;42.694;23.314;2022-07-06T11:23:48;95112.00;;;31.33;35.72
70127;BME280;57491;42.694;23.314;2022-07-06T11:26:16;95103.19;;;31.41;36.65
70127;BME280;57491;42.694;23.314;2022-07-06T11:28:50;95114.44;;;31.21;36.25
70127;BME280;57491;42.694;23.314;2022-07-06T11:31:18;95085.22;;;30.97;36.94
70127;BME280;57491;42.694;23.314;2022-07-06T11:33:46;95110.44;;;30.88;37.29
70127;BME280;57491;42.694;23.314;2022-07-06T11:36:18;95111.03;;;30.85;36.83
70127;BME280;57491;42.694;23.314;2022-07-06T11:38:46;95100.53;;;30.52;36.40
70127;BME280;57491;42.694;23.314;2022-07-06T11:41:14;95101.00;;;30.99;36.07
70127;BME280;57491;42.694;23.314;2022-07-06T11:43:42;95092.31;;;31.16;34.45
70127;BME280;57491;42.694;23.314;2022-07-06T11:46:23;95093.50;;;31.01;35.95
70127;BME280;57491;42.694;23.314;2022-07-06T11:48:52;95087.53;;;31.13;36.43
70127;BME280;57491;42.694;23.314;2022-07-06T11:51:20;95089.25;;;31.09;36.87
70127;BME280;57491;42.694;23.314;2022-07-06T11:53:50;95063.19;;;30.87;35.50
70127;BME280;57491;42.694;23.314;2022-07-06T11:56:18;95061.19;;;30.92;36.40
70127;BME280;57491;42.694;23.314;2022-07-06T11:58:49;95068.81;;;30.54;36.67
70127;BME280;57491;42.694;23.314;2022-07-06T12:01:16;95077.78;;;30.36;37.26
70127;BME280;57491;42.694;23.314;2022-07-06T12:03:46;95056.69;;;30.57;36.69
70127;BME280;57491;42.694;23.314;2022-07-06T12:06:15;95074.44;;;30.89;36.60
70127;BME280;57491;42.694;23.314;2022-07-06T12:08:44;95072.19;;;30.82;36.83
70127;BME280;57491;42.694;23.314;2022-07-06T12:11:18;95070.63;;;30.90;36.11
70127;BME280;57491;42.694;23.314;2022-07-06T12:13:45;95069.91;;;30.40;36.48
70127;BME280;57491;42.694;23.314;2022-07-06T12:16:14;95075.28;;;30.04;37.60
70127;BME280;57491;42.694;23.314;2022-07-06T12:18:43;95072.75;;;29.72;38.10
70127;BME280;57491;42.694;23.314;2022-07-06T12:21:14;95077.69;;;29.78;38.53
70127;BME280;57491;42.694;23.314;2022-07-06T12:23:45;95080.75;;;29.31;38.93
70127;BME280;57491;42.694;23.314;2022-07-06T12:26:13;95065.91;;;28.73;39.62
70127;BME280;57491;42.694;23.314;2022-07-06T12:28:41;95080.03;;;28.42;40.36
70127;BME280;57491;42.694;23.314;2022-07-06T12:31:08;95070.16;;;28.23;41.00
70127;BME280;57491;42.694;23.314;2022-07-06T12:33:35;95072.84;;;28.23;41.34
70127;BME280;57491;42.694;23.314;2022-07-06T12:36:12;95077.13;;;28.01;41.55
70127;BME280;57491;42.694;23.314;2022-07-06T12:38:47;95077.03;;;27.87;41.74
70127;BME280;57491;42.694;23.314;2022-07-06T12:41:28;95065.09;;;27.79;41.50
70127;BME280;57491;42.694;23.314;2022-07-06T12:44:07;95055.66;;;27.87;41.82
70127;BME280;57491;42.694;23.314;2022-07-06T12:46:37;95057.28;;;28.44;42.12
70127;BME280;57491;42.694;23.314;2022-07-06T12:49:15;95055.56;;;28.86;40.53
70127;BME280;57491;42.694;23.314;2022-07-06T12:51:51;95053.59;;;29.05;39.91
70127;BME280;57491;42.694;23.314;2022-07-06T12:54:19;95034.50;;;29.11;40.40
70127;BME280;57491;42.694;23.314;2022-07-06T12:57:02;95045.34;;;29.34;39.25